Norfolk, VA (23517)

11:27 PM EST on December 22, 2014 (GMT -0500)
Historic Ghent Square | Change Station
CLOSE
Current Station
Personal Weather Station
Location: Norfolk, VA
Elevation: 8 ft
Nearby Weather Stations

Elev 8 ft 36.86 °N, 76.29 °W | Updated 3 seconds ago

Overcast
Overcast
45.2 °F
Feels Like 45 °F
N
0.0
Wind Variable Wind from NW
Gusts 7.0 mph

Today
High -- | Low -- °F
--% Chance of Precip.
Yesterday
High -- | Low -- °F
Precip. -- in
7:14 AM 4:52 PM
New Moon, 2% visible
Pressure 30.02 in
Visibility 3.0 miles
Clouds Overcast 400 ft
Windchill 45 °F
Dew Point 45 °F
Humidity 100%
Rainfall 0.70 in
Snow Depth Not available.
UV 0 out of 12
Pollen .10 out of 12
Air Quality Not available.
Flu Activity Not available.
METAR KNGU 230359Z 33005KT 3SM -DZ BR OVC004 08/06 A3002 RMK AO2 SLP166 P0003 T00830061

More Conditions Fewer Conditions

Pressure 30.02 in
Visibility 3.0 miles
Clouds Overcast 400 ft
Windchill 45 °F
Dew Point 45 °F
Humidity 100%
Rainfall 0.70 in
Snow Depth Not available.
UV 0 out of 12
Pollen .10 out of 12
Air Quality Not available.
Flu Activity Not available.
METAR KNGU 230359Z 33005KT 3SM -DZ BR OVC004 08/06 A3002 RMK AO2 SLP166 P0003 T00830061

More Conditions Fewer Conditions

10-Day Weather Forecast

Almanac

Astronomy

Dec. 22, 2014 Rise Set
Actual Time
Civil Twilight
Nautical Twilight
Astronomical Twilight
Moon
Length of Visible Light
Length of Day
Tomorrow will be .
, % of the Moon is Illuminated

Today's Extremes

State Highs State Lows

Community

WunderPhotos

Upload Photos

1,779,776 photos uploaded!

WunderBlogs® & News

Nearby

Air Quality

  Air Quality AQ Index Pollutant
Not available.

Snow Depth

Station Depth Elevation

Earthquake Activity

City Distance Mag. Time & Date
Minimum magnitude displayed is 2.5.

Coastal Water Temperatures

Place Temperature

Nearby Weather Stations